Lower Sugarloaf Key, Florida
Current Conditions -  °F | °C
As of 1:53 AM on Tuesday 21 Oct 2014 (Local Time) from KNQX Reporting Station
Few Clouds Few Clouds  
Wind Chill: 76°   Ceiling: Unl
Heat Index: 76°   Visibility: 10mi
Dew Point: 73°   Wind: 3mph
Humidity: 91%   Direction: 80°E
Pressure: 29.92"   Gusts: NA
Location:  24.6465°N, 81.5399°W
Report Text: KNQX 210553Z AUTO 08003KT 10SM FEW080 24/23 A2992 RMK AO2 RAB05E25 TSE00 SLP131 P0001 60028 T02440228 10267 20228 58014 $
Loading
Personal Weather Stations






























Interactive Weather Map
Tropical Storm Tracking
New forecast layout! Learn more

10-Day Weather Forecast

Advertisements
Track Severe Weather on mobile